Главная страница
METAR-TAF:

METAR-TAF

Аэропорты :

Самсун, Турция

широта: 41-15-15N, долгота: 036-34-03E, высота над уровнем моря: 5 м

Текущие метеонаблюдения

Эта сводка был подготовлена 30 минут назад, в 10:50 UTC
Ветер 3 Узел от западный-юго-западный, изменяющийся между южный-юго-западный и западно-северо-западный
Температура 19°C
Влажность 68%
Давление 1013 hPa
Видимость 10 км и более
небольшая облачность на высоте 1600 фута
Отдельные облака на высоте 3000 фута
Рассеянная облачность на высоте 9000 фута

METAR: LTFH 261050Z 25003KT 210V300 9999 FEW016 SCT030 BKN090 19/13 Q1013 NOSIG

Время: 14:20 (11:20 UTC)

Прогноз

Эта сводка был подготовлена 3 часа и 40 минут назад, в 07:40 UTC
Прогноз действительный с 26-го 09 UTC до 26-го 18 UTC
Ветер 6 Узел от восточно-северо-восточный
Видимость 10 км и более
Отдельные облака на высоте 3000 фута
Рассеянная облачность на высоте 9000 фута

TAF: LTFH 260740Z 2609/2618 07006KT 9999 SCT030 BKN090

Метеонаблюдения и прогнозы для более 4000 аэропортов (сводки METAR и TAF).

Имеющиеся станции представлены на карте желтыми и красными точками.

Чтобы увидеть название станции, наведите на нее мышь.

Затем щелкните, чтобы увидеть метеонаблюдения и метеопрогнозы.

Управление картой: чтобы увеличить масштаб, щелкните зеленые кнопки с черным крестиком; чтобы уменьшить масштаб, щелкните зеленую кнопку с тире; для просмотра соседних карт щелкайте зеленые стрелки.


METAR-TAF: